| Date | Time | Temp. (oF) | Dew Point (oF) | Rel. Hum. (%) | Press. (in.) | Wind Dir. | Wind Speed (mph) | Hourly Rainfall (in.) |
|
|---|---|---|---|---|---|---|---|---|---|
| 1 | 10/21 | 00:00 | 67 | 62 | 86 | 29.80 | ENE | 4 | 0.00 |
| 2 | 10/20 | 23:00 | 68 | 64 | 90 | 29.81 | E | 16 | 0.00 |
| 3 | 10/20 | 22:00 | 68 | 65 | 91 | 29.82 | ESE | 7 | 0.00 |
| 4 | 10/20 | 21:00 | 68 | 64 | 89 | 29.83 | E | 2 | 0.00 |
| 5 | 10/20 | 20:00 | 70 | 65 | 85 | 29.85 | ESE | 2 | 0.00 |
| 6 | 10/20 | 19:00 | 72 | 64 | 77 | 29.84 | E | 2 | 0.00 |
| 7 | 10/20 | 18:00 | 74 | 63 | 69 | 29.84 | E | 9 | 0.00 |
| 8 | 10/20 | 17:00 | 78 | 64 | 63 | 29.85 | E | 2 | 0.00 |
| 9 | 10/20 | 16:00 | 77 | 64 | 65 | 29.87 | ESE | 6 | 0.00 |
| 10 | 10/20 | 15:00 | 78 | 62 | 60 | 29.89 | E | 0 | 0.00 |
| 11 | 10/20 | 14:00 | 78 | 62 | 59 | 29.91 | ESE | 2 | 0.00 |
| 12 | 10/20 | 13:00 | 75 | 62 | 66 | 29.93 | ESE | 4 | 0.00 |
| 13 | 10/20 | 12:00 | 71 | 59 | 68 | 29.96 | ESE | 2 | 0.00 |
| 14 | 10/20 | 11:00 | 67 | 56 | 69 | 29.99 | ENE | 9 | 0.00 |
| 15 | 10/20 | 10:00 | 65 | 53 | 67 | 30.00 | ENE | 6 | 0.00 |
| 16 | 10/20 | 09:00 | 63 | 52 | 69 | 30.02 | NE | 2 | 0.00 |
| 17 | 10/20 | 08:00 | 62 | 51 | 68 | 30.01 | ENE | 4 | 0.00 |
| 18 | 10/20 | 07:00 | 61 | 49 | 67 | 30.00 | NE | 2 | 0.00 |
| 19 | 10/20 | 06:00 | 61 | 50 | 68 | 30.00 | NE | 0 | 0.00 |
| 20 | 10/20 | 05:00 | 62 | 50 | 66 | 30.01 | NE | 4 | 0.00 |
| 21 | 10/20 | 04:00 | 62 | 50 | 67 | 30.01 | NE | 5 | 0.00 |
| 22 | 10/20 | 03:00 | 61 | 49 | 65 | 30.01 | NE | 0 | 0.00 |
| 23 | 10/20 | 02:00 | 62 | 49 | 64 | 30.01 | NE | 0 | 0.00 |
| 24 | 10/20 | 01:00 | 64 | 51 | 64 | 30.01 | ENE | 6 | 0.00 |